パリ/シャルル・ド・ゴール の空港の天気 - METARとTAF

シャルル・ド・ゴール国際空港(パリ) ( LFPG / CDG ) - フランス Paris
飛行場実況気象(Metar)
観測時間04/26 13:00 CEST (04/26 11:00 UTC)
風向・風速西北西 4m/s
視程10km以上
天気現象
全天の8割程度の雲 雲底高度 1250m
気温13℃
湿度51%
気圧1021hPa
METARLFPG 261100Z 29008KT 230V320 9999 BKN041 13/03 Q1021 NOSIG
過去の天気等 Google飛行場航空写真 Wunderground天気予報

過去48時間のMETAR

飛行場予報(TAF)
発表時間: 4/26 07:00 CEST (4/26 05:00 UTC)
予報対象時間: 26日8時 CEST ~ 27日14時 CEST
風向・風速西 5m/s
視程10km以上
少しの雲 雲底高度 760m
26日14時 CEST ~ 26日17時 CEST に 確率 30% で一時的に
少しの塔状積雲 雲底高度 1,070m
26日19時 CEST ~ 26日21時 CEST に徐々に
風向・風速北西 3m/s
27日11時 CEST ~ 27日14時 CEST に徐々に
風向・風速南南東 5m/s 瞬間風速 10m/s
TAF LFPG 260500Z 2606/2712 26010KT 9999 FEW025
PROB30 TEMPO 2612/2615 FEW035TCU
BECMG 2617/2619 32005KT
BECMG 2709/2712 16010G20KT TX19/2712Z TN07/2704Z